Columbus Air Force Base
KCBM : rendu visible

Aérodrome :











RETROUVEZ-NOUS SUR...

 
LOGIN :

S'inscrire | Disclaimer

   EN    FR    IT 

 









Légende :    VFR   VFR Marginal   IFR   IFR Intensif   IFR Très Intensif
Visi : 
Plafond : 
>= 8 km
>= 3000ft
5 à 8 km
1000 à 3000 ft
1500m à 5 km
500 à 1000 ft
800 à 1500m
200 à 500 ft
< 800m
< 200 ft
Symboles :   Orages  Brouillard  Fortes neiges  Fortes précipitations  Vent > 20 kt






- Altitude de l'aérodrome : 219 ft


KCBM - Columbus Air Force Base

DERNIER METAR :
  • 280756Z AUTO 15004KT 10SM OVC003 19/18 A2993 RMK AO2 SLP137 T01880181 $

METARs EXPIRÉS :
  • 280656Z AUTO 16004KT 10SM OVC003 19/18 A2992 RMK AO2 CIG 002 RWY31C SLP133 T01870179 $
  • 280641Z AUTO 15007KT 10SM OVC003 19/18 A2992 RMK AO2 CIG 002 RWY31C SLP133 $
  • 280631Z AUTO 14008KT 10SM OVC004 19/18 A2992 RMK AO2 CIG 002 RWY31C SLP133 $
  • 280611Z AUTO 15007KT 10SM OVC005 19/18 A2992 RMK AO2 SLP133 $
  • 280556Z AUTO 14007KT 10SM OVC006 19/18 A2993 RMK AO2 OVC V BKN CIG 005 RWY31C SLP137 60005 T01870177 10225 20187 402580187 50005 $
  • 280529Z AUTO 14004KT 10SM BKN006 BKN100 OVC130 19/18 A2993 RMK AO2 CIG 006V100 SLP137 $

TAF AMD TAF KCBM
Valide du 28 à 01h jusqu'au 28 à 23h UTC


280100Z 2801/2823 16012KT 9999 VCSH BKN030 QNH2975INS
TEMPO 2801/2802 21025G35KT 4800 TSRA BKN010 OVC025CB
BECMG 2801/2802 16008KT 8000 -SHRA SCT015 BKN030 QNH2975INS
BECMG 2805/2806 18006KT 8000 BR BKN010 QNH2980INS
BECMG 2814/2815 21010G15KT 9999 NSW FEW025 QNH2988INS
BECMG 2820/2821 21010G20KT 9999 -SHRA SCT030 QNH2990INS TX28/2813Z TN20/2811Z LAST NO AMDS AFT 2801 NEXT 2809
FIR KZME / Amérique du Nord



MET'MAP, la Météo Aéronautique d'un coup d'oeil ! - Copyright ORBIFLY Décembre 2007 - Disclaimer

ORBIFLY MET'MAP TEAM :

Programmation & Développement : Alexandra Zaïnal
Sur une idée originale de : Baudouin d'Aumeries
Assistance à la programmation : Marc-Olivier Méhu
Soutien technique & logistique : Manuel Goepfert

Contact : metmap@orbifly.com




SOURCES & CREDITS :

   NOAA       Earth
Advisory